sensor_id;sensor_type;location;lat;lon;timestamp;temperature;humidity
40952;DHT22;26682;51.660;19.338;2022-08-19T00:01:12;21.10;99.90
40952;DHT22;26682;51.660;19.338;2022-08-19T00:02:59;21.00;99.90
40952;DHT22;26682;51.660;19.338;2022-08-19T00:04:45;21.00;99.90
40952;DHT22;26682;51.660;19.338;2022-08-19T00:06:35;21.00;99.90
40952;DHT22;26682;51.660;19.338;2022-08-19T00:08:21;21.00;99.90
40952;DHT22;26682;51.660;19.338;2022-08-19T00:10:13;21.00;99.90
40952;DHT22;26682;51.660;19.338;2022-08-19T00:12:00;21.10;99.90
40952;DHT22;26682;51.660;19.338;2022-08-19T00:13:49;21.00;99.90
40952;DHT22;26682;51.660;19.338;2022-08-19T00:15:35;21.00;99.90
40952;DHT22;26682;51.660;19.338;2022-08-19T00:17:21;21.00;99.90
40952;DHT22;26682;51.660;19.338;2022-08-19T00:19:07;21.00;99.90
40952;DHT22;26682;51.660;19.338;2022-08-19T00:20:54;21.00;99.90
40952;DHT22;26682;51.660;19.338;2022-08-19T00:22:40;20.90;99.90
40952;DHT22;26682;51.660;19.338;2022-08-19T00:24:26;20.90;99.90
40952;DHT22;26682;51.660;19.338;2022-08-19T00:26:14;20.90;99.90
40952;DHT22;26682;51.660;19.338;2022-08-19T00:28:00;20.80;99.90
40952;DHT22;26682;51.660;19.338;2022-08-19T00:29:46;20.80;99.90
40952;DHT22;26682;51.660;19.338;2022-08-19T00:31:32;20.80;99.90
40952;DHT22;26682;51.660;19.338;2022-08-19T00:33:18;20.70;99.90
40952;DHT22;26682;51.660;19.338;2022-08-19T00:35:04;20.70;99.90
40952;DHT22;26682;51.660;19.338;2022-08-19T00:36:50;20.70;99.90
40952;DHT22;26682;51.660;19.338;2022-08-19T00:38:38;20.70;99.90
40952;DHT22;26682;51.660;19.338;2022-08-19T00:40:26;20.70;99.90
40952;DHT22;26682;51.660;19.338;2022-08-19T00:42:12;20.70;99.90
40952;DHT22;26682;51.660;19.338;2022-08-19T00:44:11;20.70;99.90
40952;DHT22;26682;51.660;19.338;2022-08-19T00:45:58;20.70;99.90
40952;DHT22;26682;51.660;19.338;2022-08-19T00:47:44;20.60;99.90
40952;DHT22;26682;51.660;19.338;2022-08-19T00:49:51;20.60;99.90
40952;DHT22;26682;51.660;19.338;2022-08-19T00:51:38;20.60;99.90
40952;DHT22;26682;51.660;19.338;2022-08-19T00:53:26;20.50;99.90
40952;DHT22;26682;51.660;19.338;2022-08-19T00:55:18;20.50;99.90
40952;DHT22;26682;51.660;19.338;2022-08-19T00:57:06;20.50;99.90
40952;DHT22;26682;51.660;19.338;2022-08-19T00:58:55;20.50;99.90
40952;DHT22;26682;51.660;19.338;2022-08-19T01:00:42;20.50;99.90
40952;DHT22;26682;51.660;19.338;2022-08-19T01:02:29;20.50;99.90
40952;DHT22;26682;51.660;19.338;2022-08-19T01:04:15;20.50;99.90
40952;DHT22;26682;51.660;19.338;2022-08-19T01:06:01;20.50;99.90
40952;DHT22;26682;51.660;19.338;2022-08-19T01:07:48;20.50;99.90
40952;DHT22;26682;51.660;19.338;2022-08-19T01:09:36;20.40;99.90
40952;DHT22;26682;51.660;19.338;2022-08-19T01:11:22;20.40;99.90
40952;DHT22;26682;51.660;19.338;2022-08-19T01:13:08;20.40;99.90
40952;DHT22;26682;51.660;19.338;2022-08-19T01:14:55;20.40;99.90
40952;DHT22;26682;51.660;19.338;2022-08-19T01:16:41;20.40;99.90
40952;DHT22;26682;51.660;19.338;2022-08-19T01:18:29;20.40;99.90
40952;DHT22;26682;51.660;19.338;2022-08-19T01:20:20;20.40;99.90
40952;DHT22;26682;51.660;19.338;2022-08-19T01:22:25;20.40;99.90
40952;DHT22;26682;51.660;19.338;2022-08-19T01:24:12;20.30;99.90
40952;DHT22;26682;51.660;19.338;2022-08-19T01:25:58;20.30;99.90
40952;DHT22;26682;51.660;19.338;2022-08-19T01:27:46;20.30;99.90
40952;DHT22;26682;51.660;19.338;2022-08-19T01:29:33;20.30;99.90
40952;DHT22;26682;51.660;19.338;2022-08-19T01:31:22;20.40;99.90
40952;DHT22;26682;51.660;19.338;2022-08-19T01:33:08;20.40;99.90
40952;DHT22;26682;51.660;19.338;2022-08-19T01:34:54;20.40;99.90
40952;DHT22;26682;51.660;19.338;2022-08-19T01:36:44;20.40;99.90
40952;DHT22;26682;51.660;19.338;2022-08-19T01:38:37;20.40;99.90
40952;DHT22;26682;51.660;19.338;2022-08-19T01:40:25;20.40;99.90
40952;DHT22;26682;51.660;19.338;2022-08-19T01:42:11;20.40;99.90
40952;DHT22;26682;51.660;19.338;2022-08-19T01:43:58;20.40;99.90
40952;DHT22;26682;51.660;19.338;2022-08-19T01:45:44;20.40;99.90
40952;DHT22;26682;51.660;19.338;2022-08-19T01:47:30;20.40;99.90
40952;DHT22;26682;51.660;19.338;2022-08-19T01:49:19;20.40;99.90
40952;DHT22;26682;51.660;19.338;2022-08-19T01:51:07;20.40;99.90
40952;DHT22;26682;51.660;19.338;2022-08-19T01:52:54;20.40;99.90
40952;DHT22;26682;51.660;19.338;2022-08-19T01:54:40;20.40;99.90
40952;DHT22;26682;51.660;19.338;2022-08-19T01:56:26;20.40;99.90
40952;DHT22;26682;51.660;19.338;2022-08-19T01:58:15;20.40;99.90
40952;DHT22;26682;51.660;19.338;2022-08-19T02:00:05;20.40;99.90
40952;DHT22;26682;51.660;19.338;2022-08-19T02:01:57;20.40;99.90
40952;DHT22;26682;51.660;19.338;2022-08-19T02:03:43;20.40;99.90
40952;DHT22;26682;51.660;19.338;2022-08-19T02:05:29;20.30;99.90
40952;DHT22;26682;51.660;19.338;2022-08-19T02:07:19;20.30;99.90
40952;DHT22;26682;51.660;19.338;2022-08-19T02:09:07;20.30;99.90
40952;DHT22;26682;51.660;19.338;2022-08-19T02:10:53;20.30;99.90
40952;DHT22;26682;51.660;19.338;2022-08-19T02:12:39;20.30;99.90
40952;DHT22;26682;51.660;19.338;2022-08-19T02:14:25;20.30;99.90
40952;DHT22;26682;51.660;19.338;2022-08-19T02:16:12;20.30;99.90
40952;DHT22;26682;51.660;19.338;2022-08-19T02:17:57;20.30;99.90
40952;DHT22;26682;51.660;19.338;2022-08-19T02:19:44;20.30;99.90
40952;DHT22;26682;51.660;19.338;2022-08-19T02:21:30;20.30;99.90
40952;DHT22;26682;51.660;19.338;2022-08-19T02:23:16;20.30;99.90
40952;DHT22;26682;51.660;19.338;2022-08-19T02:25:03;20.30;99.90
40952;DHT22;26682;51.660;19.338;2022-08-19T02:26:50;20.30;99.90
40952;DHT22;26682;51.660;19.338;2022-08-19T02:28:36;20.30;99.90
40952;DHT22;26682;51.660;19.338;2022-08-19T02:30:23;20.40;99.90
40952;DHT22;26682;51.660;19.338;2022-08-19T02:32:10;20.40;99.90
40952;DHT22;26682;51.660;19.338;2022-08-19T02:33:56;20.40;99.90
40952;DHT22;26682;51.660;19.338;2022-08-19T02:35:45;20.30;99.90
40952;DHT22;26682;51.660;19.338;2022-08-19T02:37:31;20.40;99.90
40952;DHT22;26682;51.660;19.338;2022-08-19T02:39:35;20.40;99.90
40952;DHT22;26682;51.660;19.338;2022-08-19T02:41:28;20.40;99.90
40952;DHT22;26682;51.660;19.338;2022-08-19T02:43:14;20.40;99.90
40952;DHT22;26682;51.660;19.338;2022-08-19T02:45:01;20.40;99.90
40952;DHT22;26682;51.660;19.338;2022-08-19T02:46:47;20.40;99.90
40952;DHT22;26682;51.660;19.338;2022-08-19T02:48:35;20.40;99.90
40952;DHT22;26682;51.660;19.338;2022-08-19T02:50:21;20.40;99.90
40952;DHT22;26682;51.660;19.338;2022-08-19T02:52:07;20.30;99.90
40952;DHT22;26682;51.660;19.338;2022-08-19T02:53:53;20.30;99.90
40952;DHT22;26682;51.660;19.338;2022-08-19T02:55:46;20.30;99.90
40952;DHT22;26682;51.660;19.338;2022-08-19T02:57:32;20.40;99.90
40952;DHT22;26682;51.660;19.338;2022-08-19T02:59:18;20.40;99.90
40952;DHT22;26682;51.660;19.338;2022-08-19T03:01:04;20.30;99.90
40952;DHT22;26682;51.660;19.338;2022-08-19T03:02:50;20.40;99.90
40952;DHT22;26682;51.660;19.338;2022-08-19T03:04:36;20.40;99.90
40952;DHT22;26682;51.660;19.338;2022-08-19T03:06:22;20.30;99.90
40952;DHT22;26682;51.660;19.338;2022-08-19T03:08:10;20.40;99.90
40952;DHT22;26682;51.660;19.338;2022-08-19T03:09:58;20.40;99.90
40952;DHT22;26682;51.660;19.338;2022-08-19T03:11:44;20.40;99.90
40952;DHT22;26682;51.660;19.338;2022-08-19T03:13:30;20.40;99.90
40952;DHT22;26682;51.660;19.338;2022-08-19T03:15:16;20.40;99.90
40952;DHT22;26682;51.660;19.338;2022-08-19T03:17:03;20.40;99.90
40952;DHT22;26682;51.660;19.338;2022-08-19T03:18:51;20.40;99.90
40952;DHT22;26682;51.660;19.338;2022-08-19T03:20:49;20.50;99.90
40952;DHT22;26682;51.660;19.338;2022-08-19T03:22:35;20.50;99.90
40952;DHT22;26682;51.660;19.338;2022-08-19T03:24:21;20.40;99.90
40952;DHT22;26682;51.660;19.338;2022-08-19T03:26:07;20.40;99.90
40952;DHT22;26682;51.660;19.338;2022-08-19T03:27:53;20.40;99.90
40952;DHT22;26682;51.660;19.338;2022-08-19T03:29:39;20.40;99.90
40952;DHT22;26682;51.660;19.338;2022-08-19T03:31:26;20.40;99.90
40952;DHT22;26682;51.660;19.338;2022-08-19T03:33:12;20.40;99.90
40952;DHT22;26682;51.660;19.338;2022-08-19T03:34:58;20.40;99.90
40952;DHT22;26682;51.660;19.338;2022-08-19T03:36:45;20.40;99.90
40952;DHT22;26682;51.660;19.338;2022-08-19T03:38:31;20.40;99.90
40952;DHT22;26682;51.660;19.338;2022-08-19T03:40:18;20.40;99.90
40952;DHT22;26682;51.660;19.338;2022-08-19T03:42:04;20.40;99.90
40952;DHT22;26682;51.660;19.338;2022-08-19T03:43:52;20.50;99.90
40952;DHT22;26682;51.660;19.338;2022-08-19T03:45:38;20.50;99.90
40952;DHT22;26682;51.660;19.338;2022-08-19T03:47:24;20.50;99.90
40952;DHT22;26682;51.660;19.338;2022-08-19T03:49:10;20.50;99.90
40952;DHT22;26682;51.660;19.338;2022-08-19T03:50:56;20.50;99.90
40952;DHT22;26682;51.660;19.338;2022-08-19T03:52:48;20.60;99.90
40952;DHT22;26682;51.660;19.338;2022-08-19T03:54:36;20.60;99.90
40952;DHT22;26682;51.660;19.338;2022-08-19T03:56:24;20.60;99.90
40952;DHT22;26682;51.660;19.338;2022-08-19T03:58:11;20.60;99.90
40952;DHT22;26682;51.660;19.338;2022-08-19T03:59:57;20.60;99.90
40952;DHT22;26682;51.660;19.338;2022-08-19T04:01:43;20.60;99.90
40952;DHT22;26682;51.660;19.338;2022-08-19T04:03:29;20.60;99.90
40952;DHT22;26682;51.660;19.338;2022-08-19T04:05:15;20.60;99.90
40952;DHT22;26682;51.660;19.338;2022-08-19T04:07:01;20.60;99.90
40952;DHT22;26682;51.660;19.338;2022-08-19T04:08:49;20.70;99.90
40952;DHT22;26682;51.660;19.338;2022-08-19T04:10:41;20.70;99.90
40952;DHT22;26682;51.660;19.338;2022-08-19T04:12:28;20.70;99.90
40952;DHT22;26682;51.660;19.338;2022-08-19T04:14:19;20.70;99.90
40952;DHT22;26682;51.660;19.338;2022-08-19T04:16:06;20.70;99.90
40952;DHT22;26682;51.660;19.338;2022-08-19T04:17:52;20.80;99.90
40952;DHT22;26682;51.660;19.338;2022-08-19T04:19:38;20.80;99.90
40952;DHT22;26682;51.660;19.338;2022-08-19T04:21:25;20.90;99.90
40952;DHT22;26682;51.660;19.338;2022-08-19T04:23:13;20.90;99.90
40952;DHT22;26682;51.660;19.338;2022-08-19T04:24:59;20.90;99.90
40952;DHT22;26682;51.660;19.338;2022-08-19T04:26:45;20.90;99.90
40952;DHT22;26682;51.660;19.338;2022-08-19T04:28:32;21.00;99.90
40952;DHT22;26682;51.660;19.338;2022-08-19T04:30:19;21.00;99.90
40952;DHT22;26682;51.660;19.338;2022-08-19T04:32:06;21.00;99.90
40952;DHT22;26682;51.660;19.338;2022-08-19T04:33:56;21.10;99.90
40952;DHT22;26682;51.660;19.338;2022-08-19T04:35:45;21.10;99.90
40952;DHT22;26682;51.660;19.338;2022-08-19T04:37:32;21.10;99.90
40952;DHT22;26682;51.660;19.338;2022-08-19T04:39:22;21.20;99.90
40952;DHT22;26682;51.660;19.338;2022-08-19T04:41:09;21.20;99.90
40952;DHT22;26682;51.660;19.338;2022-08-19T04:43:13;21.30;99.90
40952;DHT22;26682;51.660;19.338;2022-08-19T04:45:01;21.30;99.90
40952;DHT22;26682;51.660;19.338;2022-08-19T04:46:49;21.40;99.90
40952;DHT22;26682;51.660;19.338;2022-08-19T04:48:36;21.50;99.90
40952;DHT22;26682;51.660;19.338;2022-08-19T04:50:23;21.50;99.90
40952;DHT22;26682;51.660;19.338;2022-08-19T04:52:10;21.70;99.90
40952;DHT22;26682;51.660;19.338;2022-08-19T04:53:56;21.60;99.90
40952;DHT22;26682;51.660;19.338;2022-08-19T04:55:42;21.60;99.90
40952;DHT22;26682;51.660;19.338;2022-08-19T04:57:28;21.60;99.90
40952;DHT22;26682;51.660;19.338;2022-08-19T04:59:14;21.60;99.90
40952;DHT22;26682;51.660;19.338;2022-08-19T05:01:02;21.70;99.90
40952;DHT22;26682;51.660;19.338;2022-08-19T05:02:48;21.70;99.90
40952;DHT22;26682;51.660;19.338;2022-08-19T05:04:35;21.90;99.90
40952;DHT22;26682;51.660;19.338;2022-08-19T05:06:24;22.00;99.90
40952;DHT22;26682;51.660;19.338;2022-08-19T05:08:12;22.20;99.90
40952;DHT22;26682;51.660;19.338;2022-08-19T05:09:58;22.40;99.90
40952;DHT22;26682;51.660;19.338;2022-08-19T05:11:44;22.60;99.90
40952;DHT22;26682;51.660;19.338;2022-08-19T05:13:30;22.70;99.90
40952;DHT22;26682;51.660;19.338;2022-08-19T05:15:16;22.90;99.90
40952;DHT22;26682;51.660;19.338;2022-08-19T05:17:03;23.10;99.90
40952;DHT22;26682;51.660;19.338;2022-08-19T05:18:49;23.30;99.90
40952;DHT22;26682;51.660;19.338;2022-08-19T05:20:54;23.40;99.90
40952;DHT22;26682;51.660;19.338;2022-08-19T05:22:59;23.50;99.90
40952;DHT22;26682;51.660;19.338;2022-08-19T05:24:45;23.70;99.90
40952;DHT22;26682;51.660;19.338;2022-08-19T05:26:31;23.80;99.90
40952;DHT22;26682;51.660;19.338;2022-08-19T05:28:19;24.00;99.90
40952;DHT22;26682;51.660;19.338;2022-08-19T05:30:06;24.10;99.90
40952;DHT22;26682;51.660;19.338;2022-08-19T05:31:54;24.30;99.90
40952;DHT22;26682;51.660;19.338;2022-08-19T05:33:40;24.30;99.90
40952;DHT22;26682;51.660;19.338;2022-08-19T05:35:26;24.40;99.90
40952;DHT22;26682;51.660;19.338;2022-08-19T05:37:13;24.50;99.90
40952;DHT22;26682;51.660;19.338;2022-08-19T05:38:59;24.60;99.90
40952;DHT22;26682;51.660;19.338;2022-08-19T05:40:46;24.70;99.90
40952;DHT22;26682;51.660;19.338;2022-08-19T05:42:33;24.80;99.90
40952;DHT22;26682;51.660;19.338;2022-08-19T05:44:20;24.80;99.90
40952;DHT22;26682;51.660;19.338;2022-08-19T05:46:07;24.90;99.90
40952;DHT22;26682;51.660;19.338;2022-08-19T05:47:54;25.10;99.90
40952;DHT22;26682;51.660;19.338;2022-08-19T05:49:40;25.10;99.90
40952;DHT22;26682;51.660;19.338;2022-08-19T05:51:27;25.30;99.90
40952;DHT22;26682;51.660;19.338;2022-08-19T05:53:13;25.40;99.90
40952;DHT22;26682;51.660;19.338;2022-08-19T05:55:02;25.60;99.90
40952;DHT22;26682;51.660;19.338;2022-08-19T05:56:48;25.50;99.90
40952;DHT22;26682;51.660;19.338;2022-08-19T05:58:35;25.50;99.90
40952;DHT22;26682;51.660;19.338;2022-08-19T06:00:22;25.60;99.90
40952;DHT22;26682;51.660;19.338;2022-08-19T06:02:08;25.80;99.90
40952;DHT22;26682;51.660;19.338;2022-08-19T06:03:54;25.90;99.90
40952;DHT22;26682;51.660;19.338;2022-08-19T06:05:41;26.00;99.90
40952;DHT22;26682;51.660;19.338;2022-08-19T06:07:28;26.20;99.90
40952;DHT22;26682;51.660;19.338;2022-08-19T06:09:14;26.20;99.90
40952;DHT22;26682;51.660;19.338;2022-08-19T06:11:39;26.20;99.90
40952;DHT22;26682;51.660;19.338;2022-08-19T06:13:26;26.30;99.90
40952;DHT22;26682;51.660;19.338;2022-08-19T06:15:13;26.30;99.90
40952;DHT22;26682;51.660;19.338;2022-08-19T06:16:59;26.40;99.90
40952;DHT22;26682;51.660;19.338;2022-08-19T06:18:52;26.40;99.90
40952;DHT22;26682;51.660;19.338;2022-08-19T06:20:39;26.30;99.90
40952;DHT22;26682;51.660;19.338;2022-08-19T06:22:27;26.30;99.90
40952;DHT22;26682;51.660;19.338;2022-08-19T06:24:16;26.40;99.90
40952;DHT22;26682;51.660;19.338;2022-08-19T06:26:03;26.50;99.90
40952;DHT22;26682;51.660;19.338;2022-08-19T06:27:49;26.50;99.90
40952;DHT22;26682;51.660;19.338;2022-08-19T06:29:35;26.60;99.90
40952;DHT22;26682;51.660;19.338;2022-08-19T06:31:26;26.70;99.90
40952;DHT22;26682;51.660;19.338;2022-08-19T06:33:12;26.60;99.90
40952;DHT22;26682;51.660;19.338;2022-08-19T06:34:58;26.50;99.90
40952;DHT22;26682;51.660;19.338;2022-08-19T06:36:48;26.50;99.90
40952;DHT22;26682;51.660;19.338;2022-08-19T06:38:34;26.40;99.90
40952;DHT22;26682;51.660;19.338;2022-08-19T06:40:21;26.40;99.90
40952;DHT22;26682;51.660;19.338;2022-08-19T06:42:08;26.60;99.90
40952;DHT22;26682;51.660;19.338;2022-08-19T06:43:55;26.60;99.90
40952;DHT22;26682;51.660;19.338;2022-08-19T06:45:41;26.70;99.90
40952;DHT22;26682;51.660;19.338;2022-08-19T06:47:27;26.70;99.90
40952;DHT22;26682;51.660;19.338;2022-08-19T06:49:13;26.70;99.90
40952;DHT22;26682;51.660;19.338;2022-08-19T06:50:59;26.80;99.90
40952;DHT22;26682;51.660;19.338;2022-08-19T06:52:45;26.90;99.90
40952;DHT22;26682;51.660;19.338;2022-08-19T06:54:32;27.00;99.90
40952;DHT22;26682;51.660;19.338;2022-08-19T06:56:21;27.20;99.90
40952;DHT22;26682;51.660;19.338;2022-08-19T06:58:08;27.30;99.90
40952;DHT22;26682;51.660;19.338;2022-08-19T06:59:55;27.30;99.90
40952;DHT22;26682;51.660;19.338;2022-08-19T07:01:47;27.30;99.90
40952;DHT22;26682;51.660;19.338;2022-08-19T07:03:35;27.20;99.90
40952;DHT22;26682;51.660;19.338;2022-08-19T07:05:22;27.30;99.90
40952;DHT22;26682;51.660;19.338;2022-08-19T07:07:11;27.30;99.90
40952;DHT22;26682;51.660;19.338;2022-08-19T07:08:58;27.50;99.90
40952;DHT22;26682;51.660;19.338;2022-08-19T07:10:45;27.50;99.90
40952;DHT22;26682;51.660;19.338;2022-08-19T07:12:32;27.60;99.90
40952;DHT22;26682;51.660;19.338;2022-08-19T07:14:23;27.70;99.90
40952;DHT22;26682;51.660;19.338;2022-08-19T07:16:13;27.80;99.90
40952;DHT22;26682;51.660;19.338;2022-08-19T07:18:00;27.70;99.90
40952;DHT22;26682;51.660;19.338;2022-08-19T07:19:46;27.50;99.90
40952;DHT22;26682;51.660;19.338;2022-08-19T07:21:32;27.50;99.90
40952;DHT22;26682;51.660;19.338;2022-08-19T07:23:18;27.50;99.90
40952;DHT22;26682;51.660;19.338;2022-08-19T07:25:06;27.60;99.90
40952;DHT22;26682;51.660;19.338;2022-08-19T07:26:56;27.80;99.90
40952;DHT22;26682;51.660;19.338;2022-08-19T07:28:48;28.00;99.90
40952;DHT22;26682;51.660;19.338;2022-08-19T07:30:36;28.00;99.90
40952;DHT22;26682;51.660;19.338;2022-08-19T07:32:23;28.10;99.90
40952;DHT22;26682;51.660;19.338;2022-08-19T07:34:11;28.00;99.90
40952;DHT22;26682;51.660;19.338;2022-08-19T07:36:00;27.90;99.90
40952;DHT22;26682;51.660;19.338;2022-08-19T07:37:46;27.90;99.90
40952;DHT22;26682;51.660;19.338;2022-08-19T07:39:35;27.80;99.90
40952;DHT22;26682;51.660;19.338;2022-08-19T07:41:24;27.70;99.90
40952;DHT22;26682;51.660;19.338;2022-08-19T07:43:11;27.70;99.90
40952;DHT22;26682;51.660;19.338;2022-08-19T07:44:58;27.80;99.90
40952;DHT22;26682;51.660;19.338;2022-08-19T07:46:47;27.90;99.90
40952;DHT22;26682;51.660;19.338;2022-08-19T07:48:34;28.00;99.90
40952;DHT22;26682;51.660;19.338;2022-08-19T07:50:21;28.00;99.90
40952;DHT22;26682;51.660;19.338;2022-08-19T07:52:08;28.00;99.90
40952;DHT22;26682;51.660;19.338;2022-08-19T07:53:55;27.90;99.90
40952;DHT22;26682;51.660;19.338;2022-08-19T07:55:41;27.90;99.90
40952;DHT22;26682;51.660;19.338;2022-08-19T07:57:26;28.10;99.90
40952;DHT22;26682;51.660;19.338;2022-08-19T07:59:13;28.10;99.90
40952;DHT22;26682;51.660;19.338;2022-08-19T08:00:59;28.20;99.90
40952;DHT22;26682;51.660;19.338;2022-08-19T08:02:45;28.30;99.90
40952;DHT22;26682;51.660;19.338;2022-08-19T08:04:31;28.40;99.90
40952;DHT22;26682;51.660;19.338;2022-08-19T08:06:36;28.60;99.90
40952;DHT22;26682;51.660;19.338;2022-08-19T08:08:41;28.60;99.90
40952;DHT22;26682;51.660;19.338;2022-08-19T08:10:46;28.70;99.90
40952;DHT22;26682;51.660;19.338;2022-08-19T08:12:37;28.70;99.90
40952;DHT22;26682;51.660;19.338;2022-08-19T08:14:33;28.70;99.90
40952;DHT22;26682;51.660;19.338;2022-08-19T08:16:21;28.60;99.90
40952;DHT22;26682;51.660;19.338;2022-08-19T08:18:06;28.70;99.90
40952;DHT22;26682;51.660;19.338;2022-08-19T08:19:53;28.70;99.90
40952;DHT22;26682;51.660;19.338;2022-08-19T08:21:39;28.70;99.90
40952;DHT22;26682;51.660;19.338;2022-08-19T08:23:25;28.70;99.90
40952;DHT22;26682;51.660;19.338;2022-08-19T08:25:14;28.80;99.90
40952;DHT22;26682;51.660;19.338;2022-08-19T08:27:01;28.90;99.90
40952;DHT22;26682;51.660;19.338;2022-08-19T08:28:48;28.90;99.90
40952;DHT22;26682;51.660;19.338;2022-08-19T08:30:34;28.90;99.90
40952;DHT22;26682;51.660;19.338;2022-08-19T08:32:22;28.90;99.90
40952;DHT22;26682;51.660;19.338;2022-08-19T08:34:09;28.80;99.90
40952;DHT22;26682;51.660;19.338;2022-08-19T08:35:55;28.80;99.90
40952;DHT22;26682;51.660;19.338;2022-08-19T08:37:42;28.80;99.90
40952;DHT22;26682;51.660;19.338;2022-08-19T08:39:29;28.90;99.90
40952;DHT22;26682;51.660;19.338;2022-08-19T08:43:34;29.10;99.90
40952;DHT22;26682;51.660;19.338;2022-08-19T08:45:20;29.40;99.90
40952;DHT22;26682;51.660;19.338;2022-08-19T08:47:13;29.40;99.90
40952;DHT22;26682;51.660;19.338;2022-08-19T08:49:05;29.40;99.90
40952;DHT22;26682;51.660;19.338;2022-08-19T08:50:55;29.50;99.90
40952;DHT22;26682;51.660;19.338;2022-08-19T08:52:48;29.70;99.90
40952;DHT22;26682;51.660;19.338;2022-08-19T08:54:41;29.80;99.90
40952;DHT22;26682;51.660;19.338;2022-08-19T08:56:28;29.90;99.90
40952;DHT22;26682;51.660;19.338;2022-08-19T08:58:28;30.00;99.90
40952;DHT22;26682;51.660;19.338;2022-08-19T09:00:38;30.00;99.90
40952;DHT22;26682;51.660;19.338;2022-08-19T09:02:24;30.00;99.90
40952;DHT22;26682;51.660;19.338;2022-08-19T09:04:11;29.90;99.90
40952;DHT22;26682;51.660;19.338;2022-08-19T09:06:02;29.90;99.90
40952;DHT22;26682;51.660;19.338;2022-08-19T09:09:52;30.20;99.90
40952;DHT22;26682;51.660;19.338;2022-08-19T09:11:48;30.10;99.90
40952;DHT22;26682;51.660;19.338;2022-08-19T09:13:46;30.10;99.90
40952;DHT22;26682;51.660;19.338;2022-08-19T09:15:40;30.10;99.90
40952;DHT22;26682;51.660;19.338;2022-08-19T09:17:29;30.30;99.90
40952;DHT22;26682;51.660;19.338;2022-08-19T09:19:16;30.30;99.90
40952;DHT22;26682;51.660;19.338;2022-08-19T09:21:03;30.30;99.90
40952;DHT22;26682;51.660;19.338;2022-08-19T09:22:50;30.40;99.90
40952;DHT22;26682;51.660;19.338;2022-08-19T09:24:36;30.40;99.90
40952;DHT22;26682;51.660;19.338;2022-08-19T09:26:23;30.50;99.90
40952;DHT22;26682;51.660;19.338;2022-08-19T09:28:09;30.50;99.90
40952;DHT22;26682;51.660;19.338;2022-08-19T09:29:55;30.50;99.90
40952;DHT22;26682;51.660;19.338;2022-08-19T09:31:41;30.60;99.90
40952;DHT22;26682;51.660;19.338;2022-08-19T09:33:27;30.60;99.90
40952;DHT22;26682;51.660;19.338;2022-08-19T09:35:14;30.60;99.90
40952;DHT22;26682;51.660;19.338;2022-08-19T09:37:00;30.70;99.90
40952;DHT22;26682;51.660;19.338;2022-08-19T09:38:47;30.70;99.90
40952;DHT22;26682;51.660;19.338;2022-08-19T09:40:33;30.80;99.90
40952;DHT22;26682;51.660;19.338;2022-08-19T09:42:19;30.80;99.90
40952;DHT22;26682;51.660;19.338;2022-08-19T09:44:06;30.80;99.90
40952;DHT22;26682;51.660;19.338;2022-08-19T09:45:58;30.80;99.90
40952;DHT22;26682;51.660;19.338;2022-08-19T09:47:50;30.80;99.90
40952;DHT22;26682;51.660;19.338;2022-08-19T09:49:39;30.70;99.90
40952;DHT22;26682;51.660;19.338;2022-08-19T09:51:26;30.80;99.90
40952;DHT22;26682;51.660;19.338;2022-08-19T09:53:14;30.80;99.90
40952;DHT22;26682;51.660;19.338;2022-08-19T09:55:00;30.90;99.90
40952;DHT22;26682;51.660;19.338;2022-08-19T09:56:46;30.90;99.90
40952;DHT22;26682;51.660;19.338;2022-08-19T09:58:33;30.90;99.90
40952;DHT22;26682;51.660;19.338;2022-08-19T10:00:20;30.90;99.90
40952;DHT22;26682;51.660;19.338;2022-08-19T10:02:06;30.90;99.90
40952;DHT22;26682;51.660;19.338;2022-08-19T10:03:54;31.10;99.90
40952;DHT22;26682;51.660;19.338;2022-08-19T10:05:41;31.00;99.90
40952;DHT22;26682;51.660;19.338;2022-08-19T10:07:37;31.00;99.90
40952;DHT22;26682;51.660;19.338;2022-08-19T10:09:23;31.10;99.90
40952;DHT22;26682;51.660;19.338;2022-08-19T10:11:09;31.10;99.90
40952;DHT22;26682;51.660;19.338;2022-08-19T10:12:56;31.30;99.90
40952;DHT22;26682;51.660;19.338;2022-08-19T10:14:42;31.30;99.90
40952;DHT22;26682;51.660;19.338;2022-08-19T10:16:28;31.20;99.90
40952;DHT22;26682;51.660;19.338;2022-08-19T10:18:14;31.10;99.90
40952;DHT22;26682;51.660;19.338;2022-08-19T10:20:03;30.90;99.90
40952;DHT22;26682;51.660;19.338;2022-08-19T10:21:50;30.90;99.90
40952;DHT22;26682;51.660;19.338;2022-08-19T10:23:37;30.90;99.90
40952;DHT22;26682;51.660;19.338;2022-08-19T10:25:24;31.10;99.90
40952;DHT22;26682;51.660;19.338;2022-08-19T10:27:13;31.10;99.90
40952;DHT22;26682;51.660;19.338;2022-08-19T10:29:00;31.10;99.90
40952;DHT22;26682;51.660;19.338;2022-08-19T10:30:46;31.10;99.90
40952;DHT22;26682;51.660;19.338;2022-08-19T10:32:33;31.20;99.90
40952;DHT22;26682;51.660;19.338;2022-08-19T10:34:19;31.30;99.90
40952;DHT22;26682;51.660;19.338;2022-08-19T10:36:09;31.40;99.90
40952;DHT22;26682;51.660;19.338;2022-08-19T10:37:56;31.40;99.90
40952;DHT22;26682;51.660;19.338;2022-08-19T10:39:47;31.50;99.90
40952;DHT22;26682;51.660;19.338;2022-08-19T10:41:38;31.60;99.90
40952;DHT22;26682;51.660;19.338;2022-08-19T10:43:24;31.50;99.90
40952;DHT22;26682;51.660;19.338;2022-08-19T10:45:10;31.40;99.90
40952;DHT22;26682;51.660;19.338;2022-08-19T10:46:56;31.60;99.90
40952;DHT22;26682;51.660;19.338;2022-08-19T10:48:45;31.60;99.90
40952;DHT22;26682;51.660;19.338;2022-08-19T10:50:31;31.70;99.90
40952;DHT22;26682;51.660;19.338;2022-08-19T10:52:35;31.80;99.90
40952;DHT22;26682;51.660;19.338;2022-08-19T10:54:22;31.90;99.90
40952;DHT22;26682;51.660;19.338;2022-08-19T10:56:09;31.80;99.90
40952;DHT22;26682;51.660;19.338;2022-08-19T10:58:17;31.80;99.90
40952;DHT22;26682;51.660;19.338;2022-08-19T11:00:04;31.90;99.90
40952;DHT22;26682;51.660;19.338;2022-08-19T11:01:51;31.90;99.90
40952;DHT22;26682;51.660;19.338;2022-08-19T11:03:36;32.00;99.90
40952;DHT22;26682;51.660;19.338;2022-08-19T11:05:23;32.20;99.90
40952;DHT22;26682;51.660;19.338;2022-08-19T11:07:09;32.10;99.40
40952;DHT22;26682;51.660;19.338;2022-08-19T11:08:58;32.00;98.50
40952;DHT22;26682;51.660;19.338;2022-08-19T11:10:45;31.80;98.60
40952;DHT22;26682;51.660;19.338;2022-08-19T11:12:37;31.70;98.50
40952;DHT22;26682;51.660;19.338;2022-08-19T11:14:27;31.80;98.10
40952;DHT22;26682;51.660;19.338;2022-08-19T11:16:20;31.90;98.90